Institute, Wisconsin
Current Conditions -  °F | °C
As of 11:35 PM on Tuesday 25 Nov 2014 (Local Time) from KSUE Reporting Station
Overcast Overcast  
Wind Chill: 21°   Ceiling: 1800
Heat Index: 21°   Visibility: 10mi
Dew Point: 12°   Wind: 3mph
Humidity: 68%   Direction: 230°SW
Pressure: 30.17"   Gusts: NA
Location:  44.7888°N, 87.4464°W
Report Text: KSUE 260535Z AUTO 23003KT 10SM OVC018 M06/M11 A3017 RMK AO1
Loading
Personal Weather Stations






























Interactive Weather Map New forecast layout! Learn more

10-Day Weather Forecast

Advertisements
Track Severe Weather on mobile